Time;durP1;ratioP1;P1;durP2;ratioP2;P2;SDS_P1;SDS_P2;PMS_P1;PMS_P2;Temp;Humidity;BMP_temperature;BMP_pressure;BME280_temperature;BME280_humidity;BME280_pressure;Samples;Min_cycle;Max_cycle;Signal;HPM_P1;HPM_P2
2021/10/04 00:02:02;;;;;;;1.10;0.70;;;16.80;93.90;;;;;;5034648;28;20177;-82
2021/10/04 00:04:28;;;;;;;0.55;0.47;;;16.70;94.00;;;;;;5034666;28;20211;-82
2021/10/04 00:06:56;;;;;;;0.40;0.40;;;16.70;93.90;;;;;;5034214;28;20194;-82
2021/10/04 00:09:22;;;;;;;1.08;0.88;;;16.70;94.20;;;;;;5034227;28;20177;-82
2021/10/04 00:11:48;;;;;;;0.95;0.85;;;16.70;94.70;;;;;;5033844;28;20277;-81
2021/10/04 00:14:14;;;;;;;0.40;0.37;;;16.70;94.80;;;;;;5034147;28;20234;-82
2021/10/04 00:16:40;;;;;;;0.73;0.70;;;16.70;94.50;;;;;;5033641;28;20248;-82
2021/10/04 00:19:06;;;;;;;0.40;0.40;;;16.70;94.50;;;;;;5033918;28;20412;-82
2021/10/04 00:21:32;;;;;;;0.70;0.50;;;16.70;94.00;;;;;;5033978;28;20696;-83
2021/10/04 00:23:58;;;;;;;0.40;0.40;;;16.60;93.80;;;;;;5033757;28;20420;-82
2021/10/04 00:26:23;;;;;;;0.40;0.40;;;16.70;94.00;;;;;;5033651;28;20437;-82
2021/10/04 00:28:49;;;;;;;0.60;0.60;;;16.70;94.00;;;;;;5034040;28;20173;-82
2021/10/04 00:31:15;;;;;;;0.40;0.40;;;16.60;93.10;;;;;;5032874;28;20178;-83
2021/10/04 00:33:41;;;;;;;1.02;0.50;;;16.60;93.40;;;;;;5033393;28;20193;-82
2021/10/04 00:36:07;;;;;;;0.40;0.40;;;16.60;94.00;;;;;;5033717;28;20293;-82
2021/10/04 00:38:33;;;;;;;0.40;0.35;;;16.60;94.20;;;;;;5033663;28;20232;-82
2021/10/04 00:40:59;;;;;;;0.73;0.50;;;16.60;94.20;;;;;;5033783;28;20169;-82
2021/10/04 00:43:25;;;;;;;0.80;0.70;;;16.60;94.70;;;;;;5033828;28;20446;-82
2021/10/04 00:45:51;;;;;;;0.40;0.40;;;16.50;93.30;;;;;;5034236;28;20428;-82
2021/10/04 00:48:17;;;;;;;0.40;0.40;;;16.40;93.00;;;;;;5034004;28;20543;-82
2021/10/04 00:50:43;;;;;;;0.40;0.40;;;16.30;92.90;;;;;;5034185;28;20169;-82
2021/10/04 00:53:10;;;;;;;0.60;0.50;;;16.20;92.50;;;;;;5105502;22;20210;-86
2021/10/04 00:55:36;;;;;;;0.60;0.50;;;16.20;92.70;;;;;;5016395;28;20628;-86
2021/10/04 00:58:04;;;;;;;1.02;0.93;;;16.10;93.20;;;;;;5016166;28;20645;-86
2021/10/04 01:00:30;;;;;;;0.40;0.40;;;16.00;93.30;;;;;;5016716;28;20182;-85
2021/10/04 01:02:57;;;;;;;1.25;0.68;;;16.00;93.60;;;;;;5016258;28;20551;-85
2021/10/04 01:05:23;;;;;;;0.40;0.40;;;15.90;93.60;;;;;;5016187;28;20197;-85
2021/10/04 01:07:50;;;;;;;0.40;0.40;;;15.90;93.80;;;;;;5016334;28;20205;-85
2021/10/04 01:10:16;;;;;;;0.45;0.43;;;15.80;94.10;;;;;;5016268;28;20181;-85
2021/10/04 01:12:45;;;;;;;0.40;0.40;;;15.80;94.20;;;;;;5016370;28;20201;-86
2021/10/04 01:15:12;;;;;;;2.90;0.75;;;15.80;94.80;;;;;;5016179;28;20173;-86
2021/10/04 01:17:39;;;;;;;1.40;0.63;;;15.80;95.00;;;;;;5015979;28;20236;-86
2021/10/04 01:20:26;;;;;;;0.40;0.40;;;15.80;94.70;;;;;;5016391;28;20580;-85
2021/10/04 01:22:52;;;;;;;0.40;0.40;;;15.70;94.70;;;;;;5016360;28;20280;-85
2021/10/04 01:25:20;;;;;;;0.40;0.40;;;15.70;95.10;;;;;;5016107;28;20177;-85
2021/10/04 01:27:47;;;;;;;0.73;0.63;;;15.60;94.80;;;;;;5016452;28;20617;-85
2021/10/04 01:30:14;;;;;;;0.40;0.40;;;15.60;95.50;;;;;;5016310;28;20201;-85
2021/10/04 01:32:41;;;;;;;0.40;0.40;;;15.60;95.40;;;;;;5016314;28;20217;-85
2021/10/04 01:35:08;;;;;;;0.40;0.40;;;15.60;95.60;;;;;;5016236;28;20545;-86
2021/10/04 01:37:33;;;;;;;0.40;0.40;;;15.70;95.60;;;;;;5015969;28;20243;-85
2021/10/04 01:39:59;;;;;;;0.73;0.63;;;15.70;95.10;;;;;;5016289;28;20637;-85
2021/10/04 01:42:25;;;;;;;1.07;0.97;;;15.70;94.80;;;;;;5015482;28;20470;-85
2021/10/04 01:44:51;;;;;;;0.40;0.40;;;15.70;94.80;;;;;;5015618;28;20783;-85
2021/10/04 01:47:17;;;;;;;0.50;0.47;;;15.60;94.20;;;;;;5015644;28;20436;-86
2021/10/04 01:49:45;;;;;;;0.70;0.40;;;15.60;94.30;;;;;;5015882;28;20417;-85
2021/10/04 01:52:12;;;;;;;8.00;0.60;;;15.50;93.60;;;;;;5015842;28;21001;-85
2021/10/04 01:54:39;;;;;;;0.65;0.57;;;15.40;94.50;;;;;;5015462;28;20188;-86
2021/10/04 01:57:05;;;;;;;0.90;0.52;;;15.50;94.50;;;;;;5015608;28;20209;-86
2021/10/04 01:59:31;;;;;;;0.60;0.55;;;15.40;94.50;;;;;;5015910;28;20170;-85
2021/10/04 02:01:57;;;;;;;0.40;0.40;;;15.30;94.40;;;;;;5015611;28;20177;-85
2021/10/04 02:04:23;;;;;;;0.40;0.40;;;15.30;94.70;;;;;;5015166;28;20174;-85
2021/10/04 02:06:51;;;;;;;0.40;0.40;;;15.30;94.30;;;;;;5015431;28;20194;-86
2021/10/04 02:09:18;;;;;;;0.60;0.50;;;15.30;94.60;;;;;;5015253;28;21011;-85
2021/10/04 02:11:45;;;;;;;1.30;0.55;;;15.20;94.70;;;;;;5015398;28;20537;-86
2021/10/04 02:14:11;;;;;;;0.70;0.45;;;15.10;95.10;;;;;;5014954;28;20180;-85
2021/10/04 02:16:37;;;;;;;0.40;0.40;;;15.10;95.40;;;;;;5015512;28;20213;-86
2021/10/04 02:19:03;;;;;;;0.40;0.40;;;15.10;95.40;;;;;;5015353;28;20177;-86
2021/10/04 02:21:28;;;;;;;0.40;0.40;;;15.00;95.60;;;;;;5015254;28;20849;-85
2021/10/04 02:23:54;;;;;;;0.50;0.50;;;15.00;96.10;;;;;;5015725;28;20221;-85
2021/10/04 02:26:20;;;;;;;0.40;0.40;;;14.90;96.40;;;;;;5015454;28;20436;-85
2021/10/04 02:28:46;;;;;;;0.40;0.40;;;14.90;96.70;;;;;;5015169;28;20181;-85
2021/10/04 02:31:12;;;;;;;0.60;0.40;;;14.90;97.10;;;;;;5014983;28;20956;-85
2021/10/04 02:33:38;;;;;;;0.40;0.40;;;14.90;97.10;;;;;;5015048;28;20517;-85
2021/10/04 02:36:04;;;;;;;0.40;0.40;;;14.90;96.80;;;;;;5015504;28;20463;-85
2021/10/04 02:38:29;;;;;;;0.85;0.43;;;14.90;96.90;;;;;;5015179;28;20476;-85
2021/10/04 02:40:55;;;;;;;0.87;0.77;;;14.80;96.80;;;;;;5014901;28;20232;-85
2021/10/04 02:43:21;;;;;;;0.40;0.40;;;14.80;97.20;;;;;;5015246;28;20512;-86
2021/10/04 02:45:49;;;;;;;0.70;0.40;;;14.70;97.60;;;;;;5015469;28;20424;-85
2021/10/04 02:48:15;;;;;;;0.40;0.40;;;14.60;98.00;;;;;;5015262;28;20417;-86
2021/10/04 02:50:42;;;;;;;1.98;0.82;;;14.50;98.70;;;;;;4999371;28;20407;-86
2021/10/04 02:53:08;;;;;;;0.40;0.40;;;14.50;98.80;;;;;;5015012;28;20208;-86
2021/10/04 02:55:34;;;;;;;0.40;0.40;;;14.50;99.10;;;;;;5016778;28;20182;-86
2021/10/04 02:58:00;;;;;;;0.40;0.40;;;14.60;99.10;;;;;;5019274;28;20432;-86
2021/10/04 03:00:26;;;;;;;0.40;0.40;;;14.60;98.90;;;;;;5018812;28;20436;-86
2021/10/04 03:02:52;;;;;;;1.20;1.10;;;14.60;98.80;;;;;;5018564;28;20924;-85
2021/10/04 03:05:18;;;;;;;0.40;0.40;;;14.60;99.10;;;;;;5018591;28;20231;-86
2021/10/04 03:07:44;;;;;;;0.70;0.60;;;14.50;99.10;;;;;;5018590;28;20201;-85
2021/10/04 03:10:10;;;;;;;0.40;0.40;;;14.50;99.10;;;;;;5018370;28;20253;-86
2021/10/04 03:12:36;;;;;;;0.40;0.40;;;14.50;99.00;;;;;;5018099;28;20535;-85
2021/10/04 03:15:03;;;;;;;0.40;0.40;;;14.50;98.90;;;;;;5018297;28;20248;-85
2021/10/04 03:17:29;;;;;;;0.40;0.40;;;14.50;99.10;;;;;;5018441;28;20444;-85
2021/10/04 03:19:55;;;;;;;0.40;0.40;;;14.60;99.10;;;;;;5018665;28;20550;-85
2021/10/04 03:22:21;;;;;;;0.40;0.40;;;14.70;99.10;;;;;;5018806;28;20223;-84
2021/10/04 03:24:46;;;;;;;0.40;0.40;;;14.70;99.10;;;;;;5018382;28;20905;-85
2021/10/04 03:27:12;;;;;;;0.70;0.60;;;14.70;99.10;;;;;;5018524;28;20516;-85
2021/10/04 03:29:38;;;;;;;0.40;0.40;;;14.70;99.10;;;;;;5018425;28;20448;-85
2021/10/04 03:32:04;;;;;;;0.77;0.50;;;14.70;99.10;;;;;;5018855;28;20452;-85
2021/10/04 03:34:30;;;;;;;0.40;0.35;;;14.70;99.10;;;;;;5017882;28;20169;-86
2021/10/04 03:36:56;;;;;;;0.60;0.50;;;14.70;99.10;;;;;;5018825;28;20194;-84
2021/10/04 03:39:22;;;;;;;1.75;0.50;;;14.70;99.10;;;;;;5017816;28;20412;-85
2021/10/04 03:41:48;;;;;;;0.40;0.40;;;14.70;99.10;;;;;;5018254;28;20649;-84
2021/10/04 03:44:14;;;;;;;1.90;1.00;;;14.80;99.10;;;;;;5017760;28;20261;-85
2021/10/04 03:46:39;;;;;;;0.60;0.50;;;14.80;99.10;;;;;;5018063;28;20439;-84
2021/10/04 03:49:05;;;;;;;0.40;0.37;;;14.80;99.10;;;;;;5018325;28;20409;-85
2021/10/04 03:51:31;;;;;;;0.40;0.40;;;14.90;99.10;;;;;;5018631;28;20170;-84
2021/10/04 03:53:57;;;;;;;0.40;0.40;;;14.90;99.10;;;;;;5018088;28;20205;-84
2021/10/04 03:56:24;;;;;;;0.40;0.40;;;15.00;99.00;;;;;;5018410;28;20429;-85
2021/10/04 03:58:50;;;;;;;0.40;0.40;;;14.90;99.10;;;;;;5018592;28;20626;-86
2021/10/04 04:01:15;;;;;;;0.40;0.40;;;14.90;99.00;;;;;;5018713;28;20180;-85
2021/10/04 04:03:41;;;;;;;0.40;0.30;;;14.90;99.10;;;;;;5018691;28;20169;-85
2021/10/04 04:06:07;;;;;;;0.50;0.43;;;15.00;99.10;;;;;;5018765;28;20433;-85
2021/10/04 04:08:35;;;;;;;0.40;0.40;;;15.00;99.10;;;;;;5018453;28;20178;-87
2021/10/04 04:11:02;;;;;;;0.40;0.30;;;15.00;99.10;;;;;;5018652;28;20419;-87
2021/10/04 04:13:27;;;;;;;0.40;0.30;;;15.00;99.10;;;;;;5018406;28;20277;-85
2021/10/04 04:15:53;;;;;;;0.53;0.50;;;14.90;99.10;;;;;;5021079;28;20644;-83
2021/10/04 04:18:19;;;;;;;0.40;0.40;;;15.00;99.10;;;;;;5022126;28;20177;-83
2021/10/04 04:20:46;;;;;;;0.40;0.40;;;14.90;99.10;;;;;;5021457;28;20173;-84
2021/10/04 04:23:11;;;;;;;0.98;0.73;;;14.80;99.10;;;;;;5020080;28;20943;-84
2021/10/04 04:25:37;;;;;;;2.30;0.60;;;14.80;99.10;;;;;;5019807;28;20261;-83
2021/10/04 04:28:03;;;;;;;0.87;0.50;;;14.70;99.10;;;;;;5020319;28;20419;-83
2021/10/04 04:30:29;;;;;;;0.40;0.40;;;14.70;99.10;;;;;;5020604;28;20413;-84
2021/10/04 04:32:55;;;;;;;0.40;0.40;;;14.60;99.10;;;;;;5020519;28;20665;-84
2021/10/04 04:35:21;;;;;;;0.40;0.40;;;14.60;99.10;;;;;;5019799;28;20173;-84
2021/10/04 04:37:47;;;;;;;0.53;0.47;;;14.50;99.10;;;;;;5021497;28;20436;-83
2021/10/04 04:40:15;;;;;;;0.40;0.40;;;14.50;99.10;;;;;;5022221;28;20451;-84
2021/10/04 04:42:43;;;;;;;0.40;0.40;;;14.50;99.10;;;;;;5020338;28;20185;-84
2021/10/04 04:45:11;;;;;;;0.40;0.40;;;14.40;99.10;;;;;;5019102;28;20608;-84
2021/10/04 04:47:37;;;;;;;1.25;0.90;;;14.40;99.10;;;;;;5017979;28;20547;-85
2021/10/04 04:50:05;;;;;;;0.43;0.38;;;14.50;99.10;;;;;;5017178;28;20177;-85
2021/10/04 04:52:30;;;;;;;0.40;0.40;;;14.50;99.10;;;;;;5017784;28;20665;-85
2021/10/04 04:54:56;;;;;;;0.60;0.50;;;14.50;99.10;;;;;;5017428;28;20269;-85
2021/10/04 04:57:22;;;;;;;0.70;0.60;;;14.60;99.10;;;;;;5017562;28;20566;-84
2021/10/04 04:59:48;;;;;;;0.40;0.40;;;14.60;99.10;;;;;;5017048;28;20262;-85
2021/10/04 05:02:14;;;;;;;0.40;0.40;;;14.60;99.10;;;;;;5017386;28;20424;-85
2021/10/04 05:04:39;;;;;;;0.40;0.40;;;14.60;99.10;;;;;;5018870;28;20925;-87
2021/10/04 05:07:05;;;;;;;0.60;0.50;;;14.60;99.10;;;;;;5016901;28;20588;-87
2021/10/04 05:09:31;;;;;;;0.60;0.50;;;14.60;99.10;;;;;;5017249;28;20492;-88
2021/10/04 05:11:57;;;;;;;0.80;0.60;;;14.70;99.10;;;;;;5017355;28;20413;-87
2021/10/04 05:14:22;;;;;;;0.90;0.60;;;14.70;99.10;;;;;;5017298;28;20257;-87
2021/10/04 05:16:49;;;;;;;0.40;0.40;;;14.70;99.10;;;;;;5017161;28;20197;-87
2021/10/04 05:19:16;;;;;;;0.40;0.40;;;14.70;99.10;;;;;;5016742;28;20452;-87
2021/10/04 05:21:41;;;;;;;0.40;0.40;;;14.70;99.10;;;;;;5016800;28;20173;-87
2021/10/04 05:24:07;;;;;;;0.63;0.57;;;14.70;99.10;;;;;;5016518;28;20231;-88
2021/10/04 05:26:33;;;;;;;0.70;0.60;;;14.70;99.10;;;;;;5016369;28;20863;-87
2021/10/04 05:28:59;;;;;;;0.40;0.40;;;14.70;99.10;;;;;;5017230;28;20920;-87
2021/10/04 05:31:25;;;;;;;0.60;0.50;;;14.70;99.10;;;;;;5016929;28;20931;-86
2021/10/04 05:33:51;;;;;;;0.97;0.87;;;14.70;99.10;;;;;;5017036;28;20284;-87
2021/10/04 05:36:23;;;;;;;3.33;1.10;;;14.70;99.10;;;;;;5015631;28;20467;-87
2021/10/04 05:38:49;;;;;;;0.57;0.55;;;14.80;99.10;;;;;;5016825;28;20397;-87
2021/10/04 05:41:15;;;;;;;0.53;0.47;;;14.80;99.10;;;;;;5016455;28;20204;-87
2021/10/04 05:43:41;;;;;;;4.10;1.77;;;14.80;99.10;;;;;;5016588;28;20181;-86
2021/10/04 05:46:07;;;;;;;0.80;0.60;;;14.80;99.10;;;;;;5016416;28;20201;-86
2021/10/04 05:48:33;;;;;;;0.98;0.73;;;14.80;99.10;;;;;;5016771;28;20434;-86
2021/10/04 05:50:58;;;;;;;0.97;0.87;;;14.80;99.10;;;;;;5017075;28;20170;-86
2021/10/04 05:53:24;;;;;;;0.70;0.60;;;14.80;99.10;;;;;;5016581;28;20481;-86
2021/10/04 05:55:50;;;;;;;1.05;1.02;;;14.70;99.10;;;;;;5016600;28;20193;-86
2021/10/04 05:58:17;;;;;;;1.15;0.60;;;14.70;99.10;;;;;;5016759;28;20531;-86
2021/10/04 06:00:44;;;;;;;0.70;0.60;;;14.50;99.10;;;;;;5016807;28;20217;-86
2021/10/04 06:03:09;;;;;;;1.38;0.60;;;14.40;99.10;;;;;;5016436;28;20237;-85
2021/10/04 06:05:35;;;;;;;0.40;0.40;;;14.30;99.10;;;;;;5016830;28;20269;-85
2021/10/04 06:08:02;;;;;;;0.40;0.35;;;14.30;99.10;;;;;;5016323;28;20933;-87
2021/10/04 06:10:28;;;;;;;0.40;0.40;;;14.40;99.10;;;;;;5017048;28;20174;-87
2021/10/04 06:12:54;;;;;;;1.45;0.70;;;14.40;99.10;;;;;;5016330;28;20209;-87
2021/10/04 06:15:20;;;;;;;3.17;1.03;;;14.50;99.10;;;;;;5016291;28;20581;-87
2021/10/04 06:17:46;;;;;;;0.40;0.40;;;14.50;99.10;;;;;;5015836;28;20443;-87
2021/10/04 06:20:13;;;;;;;0.40;0.40;;;14.60;99.10;;;;;;5016161;28;20170;-87
2021/10/04 06:22:40;;;;;;;0.40;0.40;;;14.60;99.10;;;;;;5016139;28;20180;-87
2021/10/04 06:25:08;;;;;;;0.60;0.50;;;14.60;99.10;;;;;;5034091;28;20541;-87
2021/10/04 06:27:34;;;;;;;0.60;0.50;;;14.60;99.10;;;;;;5016212;28;20189;-87
2021/10/04 06:30:00;;;;;;;0.40;0.40;;;14.60;99.10;;;;;;5019319;28;20273;-87
2021/10/04 06:32:26;;;;;;;0.40;0.40;;;14.60;99.10;;;;;;5019921;28;20466;-87
2021/10/04 06:34:52;;;;;;;2.20;0.77;;;14.60;99.10;;;;;;5020384;28;20170;-87
2021/10/04 06:37:18;;;;;;;0.40;0.40;;;14.60;99.10;;;;;;5019989;28;20444;-87
2021/10/04 06:39:44;;;;;;;1.37;0.87;;;14.60;99.10;;;;;;5020610;28;20173;-87
2021/10/04 06:42:09;;;;;;;0.60;0.50;;;14.70;99.10;;;;;;5019954;28;20427;-87
2021/10/04 06:44:35;;;;;;;0.60;0.50;;;14.70;99.10;;;;;;5019842;28;20668;-87
2021/10/04 06:47:02;;;;;;;0.60;0.50;;;14.80;99.10;;;;;;5019939;28;20443;-87
2021/10/04 06:49:28;;;;;;;0.50;0.45;;;14.80;99.10;;;;;;5019784;28;20245;-87
2021/10/04 06:51:53;;;;;;;0.60;0.50;;;14.80;99.10;;;;;;5019738;28;20220;-87
2021/10/04 06:54:19;;;;;;;0.60;0.50;;;14.90;99.10;;;;;;5036231;23;20213;-81
2021/10/04 06:56:45;;;;;;;1.37;0.80;;;14.90;99.10;;;;;;5039463;28;20428;-81
2021/10/04 06:59:11;;;;;;;0.70;0.60;;;14.90;99.10;;;;;;5039515;28;20165;-81
2021/10/04 07:01:37;;;;;;;0.40;0.40;;;14.80;99.10;;;;;;5039685;28;20174;-81
2021/10/04 07:04:04;;;;;;;0.40;0.40;;;14.80;99.10;;;;;;5039176;28;20416;-81
2021/10/04 07:06:30;;;;;;;0.70;0.70;;;14.80;99.10;;;;;;5038853;28;20424;-81
2021/10/04 07:08:56;;;;;;;0.40;0.40;;;14.80;99.10;;;;;;5038419;28;20205;-81
2021/10/04 07:11:22;;;;;;;0.63;0.50;;;14.80;99.10;;;;;;5039091;28;20185;-81
2021/10/04 07:13:49;;;;;;;0.90;0.70;;;14.80;99.10;;;;;;5039039;28;20456;-81
2021/10/04 07:16:18;;;;;;;1.05;0.80;;;14.80;99.10;;;;;;5039581;28;20186;-81
2021/10/04 07:18:43;;;;;;;0.75;0.65;;;14.80;99.10;;;;;;5040002;28;20170;-81
2021/10/04 07:21:10;;;;;;;0.40;0.40;;;14.80;99.10;;;;;;5039634;28;20196;-81
2021/10/04 07:23:36;;;;;;;0.60;0.50;;;14.80;99.10;;;;;;5040677;28;20416;-81
2021/10/04 07:26:02;;;;;;;1.05;0.60;;;14.80;99.10;;;;;;5040689;28;20198;-82
2021/10/04 07:28:28;;;;;;;0.47;0.40;;;14.90;99.10;;;;;;5041131;28;20514;-82
2021/10/04 07:30:55;;;;;;;0.67;0.60;;;14.90;99.10;;;;;;5040722;28;20193;-82
2021/10/04 07:33:21;;;;;;;0.40;0.40;;;15.00;99.10;;;;;;5040875;28;20453;-82
2021/10/04 07:35:46;;;;;;;0.90;0.73;;;14.90;99.10;;;;;;5039904;28;20185;-82
2021/10/04 07:38:12;;;;;;;0.40;0.40;;;14.90;99.10;;;;;;5040239;28;20170;-81
2021/10/04 07:40:38;;;;;;;0.40;0.40;;;14.90;99.10;;;;;;5039904;28;20405;-81
2021/10/04 07:43:04;;;;;;;0.60;0.50;;;14.90;99.10;;;;;;5040388;28;20178;-82
2021/10/04 07:45:32;;;;;;;0.40;0.40;;;14.90;99.10;;;;;;5039861;28;20228;-81
2021/10/04 07:47:59;;;;;;;0.40;0.40;;;14.80;99.10;;;;;;5039366;28;20177;-81
2021/10/04 07:50:24;;;;;;;0.70;0.60;;;14.70;99.10;;;;;;5040222;28;20523;-82
2021/10/04 07:52:50;;;;;;;0.70;0.60;;;14.70;99.10;;;;;;5039856;28;20205;-82
2021/10/04 07:55:16;;;;;;;0.60;0.50;;;14.80;99.10;;;;;;5038788;28;20439;-82
2021/10/04 07:57:44;;;;;;;0.50;0.50;;;14.80;99.10;;;;;;5038423;28;20476;-82
2021/10/04 08:00:10;;;;;;;1.65;0.93;;;14.70;99.10;;;;;;5039699;28;20507;-81
2021/10/04 08:02:36;;;;;;;1.02;0.93;;;14.70;99.10;;;;;;5038814;28;20182;-82
2021/10/04 08:05:04;;;;;;;4.63;0.75;;;14.70;99.10;;;;;;5038892;28;20232;-81
2021/10/04 08:07:30;;;;;;;0.60;0.50;;;14.70;99.10;;;;;;5037025;28;20189;-81
2021/10/04 08:09:56;;;;;;;1.88;0.55;;;14.60;99.10;;;;;;5036954;28;20201;-81
2021/10/04 08:12:25;;;;;;;0.53;0.47;;;14.50;99.10;;;;;;5035617;28;20220;-82
2021/10/04 08:14:51;;;;;;;0.50;0.45;;;14.40;99.10;;;;;;5035098;28;20417;-81
2021/10/04 08:17:17;;;;;;;2.60;0.50;;;14.30;99.10;;;;;;5035332;28;20186;-82
2021/10/04 08:19:43;;;;;;;1.50;1.40;;;14.20;99.10;;;;;;5035535;28;20665;-81
2021/10/04 08:22:09;;;;;;;0.53;0.50;;;14.20;99.10;;;;;;5035596;28;20416;-80
2021/10/04 08:24:35;;;;;;;0.50;0.40;;;14.20;99.10;;;;;;5035251;28;20174;-81
2021/10/04 08:27:01;;;;;;;0.50;0.50;;;14.20;99.10;;;;;;5036223;28;20192;-82
2021/10/04 08:29:27;;;;;;;0.77;0.57;;;14.30;99.10;;;;;;5035794;28;20170;-82
2021/10/04 08:31:52;;;;;;;0.40;0.40;;;14.30;99.10;;;;;;5036581;28;20939;-82
2021/10/04 08:34:18;;;;;;;0.83;0.53;;;14.30;99.10;;;;;;5036981;28;20204;-81
2021/10/04 08:36:44;;;;;;;1.33;1.30;;;14.30;99.10;;;;;;5037198;28;20196;-81
2021/10/04 08:39:10;;;;;;;0.53;0.40;;;14.40;99.10;;;;;;5035792;28;20416;-81
2021/10/04 08:41:37;;;;;;;3.40;1.17;;;14.40;99.10;;;;;;5035047;28;20261;-81
2021/10/04 08:44:10;;;;;;;0.60;0.50;;;14.40;99.10;;;;;;5035921;28;20924;-81
2021/10/04 08:46:38;;;;;;;0.40;0.40;;;14.40;99.10;;;;;;5037321;28;20201;-81
2021/10/04 08:49:05;;;;;;;0.40;0.40;;;14.40;99.10;;;;;;5035941;28;20173;-81
2021/10/04 08:51:31;;;;;;;0.60;0.50;;;14.50;99.10;;;;;;5036628;28;20280;-82
2021/10/04 08:53:57;;;;;;;0.60;0.50;;;14.50;99.10;;;;;;5035262;28;20206;-82
2021/10/04 08:56:22;;;;;;;0.40;0.40;;;14.50;99.10;;;;;;5036224;28;20479;-81
2021/10/04 08:58:48;;;;;;;0.90;0.47;;;14.50;99.10;;;;;;5036920;28;20485;-82
2021/10/04 09:01:20;;;;;;;0.80;0.80;;;14.50;99.10;;;;;;5035713;28;20932;-82
2021/10/04 09:03:49;;;;;;;1.30;0.50;;;14.60;99.10;;;;;;5035528;28;20166;-81
2021/10/04 09:06:38;;;;;;;0.40;0.35;;;14.50;99.10;;;;;;5035675;28;20205;-81
2021/10/04 09:09:10;;;;;;;0.75;0.50;;;14.50;99.10;;;;;;5036464;28;20759;-81
2021/10/04 09:11:48;;;;;;;1.05;0.80;;;14.50;99.10;;;;;;5036234;28;20246;-81
2021/10/04 09:14:29;;;;;;;0.52;0.50;;;14.50;99.10;;;;;;5035134;28;20293;-82
2021/10/04 09:17:03;;;;;;;1.35;0.57;;;14.50;99.10;;;;;;5034804;28;20197;-82
2021/10/04 09:19:34;;;;;;;0.50;0.47;;;14.40;99.10;;;;;;5034776;28;20264;-81
2021/10/04 09:22:08;;;;;;;0.65;0.55;;;14.30;99.10;;;;;;5035712;28;20202;-82
2021/10/04 09:24:36;;;;;;;1.20;1.02;;;14.40;99.10;;;;;;5036072;28;20162;-81
2021/10/04 09:27:03;;;;;;;1.20;0.70;;;14.40;99.10;;;;;;5036273;28;20217;-81
2021/10/04 09:29:47;;;;;;;0.60;0.50;;;14.40;99.10;;;;;;5035933;28;20170;-80
2021/10/04 09:32:20;;;;;;;0.73;0.50;;;14.50;99.10;;;;;;5036241;28;20170;-82
2021/10/04 09:34:46;;;;;;;0.50;0.50;;;14.50;99.10;;;;;;5035928;28;20166;-81
2021/10/04 09:37:22;;;;;;;0.80;0.70;;;14.60;99.10;;;;;;5034806;28;20194;-81
2021/10/04 09:39:48;;;;;;;0.40;0.40;;;14.60;99.10;;;;;;5036889;28;20423;-82
2021/10/04 09:42:18;;;;;;;0.57;0.50;;;14.60;99.10;;;;;;5036503;28;20170;-82
2021/10/04 09:44:49;;;;;;;1.02;0.80;;;14.70;99.10;;;;;;5037212;28;20499;-81
2021/10/04 09:47:19;;;;;;;0.75;0.65;;;14.80;99.10;;;;;;5036724;28;20194;-81
2021/10/04 09:50:08;;;;;;;0.40;0.40;;;14.70;99.10;;;;;;5036477;28;20170;-82
2021/10/04 09:52:39;;;;;;;0.40;0.40;;;14.70;99.10;;;;;;5035947;28;20201;-81
2021/10/04 09:55:36;;;;;;;0.40;0.40;;;14.60;99.10;;;;;;5036595;28;20193;-81
2021/10/04 09:58:15;;;;;;;0.40;0.40;;;14.60;99.10;;;;;;5019997;28;20182;-80
2021/10/04 10:00:56;;;;;;;0.80;0.65;;;14.70;99.10;;;;;;5036211;28;20724;-82
2021/10/04 10:03:24;;;;;;;0.55;0.50;;;14.80;99.10;;;;;;5035896;28;20195;-81
2021/10/04 10:05:55;;;;;;;0.57;0.50;;;14.90;99.10;;;;;;5040419;28;20283;-81
2021/10/04 10:08:23;;;;;;;0.70;0.60;;;14.80;99.10;;;;;;5040497;28;20172;-81
2021/10/04 10:10:51;;;;;;;0.50;0.45;;;14.80;99.10;;;;;;5041721;28;20237;-82
2021/10/04 10:13:18;;;;;;;0.40;0.40;;;14.90;99.10;;;;;;5040848;28;20283;-82
2021/10/04 10:16:06;;;;;;;1.58;0.85;;;15.10;99.10;;;;;;5040866;28;20182;-82
2021/10/04 10:18:47;;;;;;;0.40;0.40;;;15.20;99.10;;;;;;5039668;28;20184;-82
2021/10/04 10:21:25;;;;;;;0.60;0.60;;;15.40;99.10;;;;;;5038171;28;20157;-82
2021/10/04 10:23:52;;;;;;;0.40;0.40;;;15.60;99.10;;;;;;5037797;28;20162;-82
2021/10/04 10:26:37;;;;;;;0.40;0.40;;;15.60;99.10;;;;;;5037436;28;20292;-83
2021/10/04 10:29:09;;;;;;;0.60;0.50;;;15.70;98.50;;;;;;5037691;28;20625;-82
2021/10/04 10:31:55;;;;;;;0.47;0.45;;;15.70;98.30;;;;;;5038216;28;20260;-83
2021/10/04 10:34:31;;;;;;;0.60;0.50;;;15.80;97.90;;;;;;5037355;28;20202;-82
2021/10/04 10:37:00;;;;;;;0.60;0.50;;;15.80;97.60;;;;;;5037888;28;20193;-82
2021/10/04 10:39:42;;;;;;;0.40;0.40;;;15.80;98.50;;;;;;5037550;28;20166;-82
2021/10/04 10:42:15;;;;;;;0.45;0.45;;;15.90;99.10;;;;;;5037707;28;20154;-83
2021/10/04 10:45:09;;;;;;;0.40;0.40;;;16.00;98.10;;;;;;5037534;28;20174;-83
2021/10/04 10:47:37;;;;;;;0.40;0.40;;;15.80;96.50;;;;;;5034426;28;20609;-83
2021/10/04 10:50:03;;;;;;;0.50;0.40;;;15.90;98.40;;;;;;5038147;28;20174;-83
2021/10/04 10:52:31;;;;;;;0.40;0.40;;;15.90;97.50;;;;;;5037727;28;20196;-83
2021/10/04 10:54:57;;;;;;;0.70;0.70;;;16.00;98.60;;;;;;5037244;28;20436;-83
2021/10/04 10:57:45;;;;;;;0.85;0.80;;;16.10;99.00;;;;;;5038009;28;20673;-83
2021/10/04 11:00:20;;;;;;;2.35;0.70;;;16.20;96.70;;;;;;5037094;28;20197;-83
2021/10/04 11:02:47;;;;;;;0.40;0.40;;;16.20;95.90;;;;;;5037626;28;20161;-83
2021/10/04 11:05:35;;;;;;;0.40;0.40;;;16.30;97.60;;;;;;5039161;28;20174;-83
2021/10/04 11:08:05;;;;;;;0.90;0.50;;;16.40;95.10;;;;;;5037840;28;20175;-83
2021/10/04 11:10:32;;;;;;;0.40;0.35;;;16.30;92.90;;;;;;5037258;28;20166;-84
2021/10/04 11:13:07;;;;;;;0.40;0.40;;;16.20;92.80;;;;;;5037617;28;20592;-83
2021/10/04 11:15:37;;;;;;;0.40;0.40;;;16.30;93.40;;;;;;5037081;28;20174;-84
2021/10/04 11:18:04;;;;;;;0.60;0.50;;;16.30;94.20;;;;;;5037360;28;20181;-82
2021/10/04 11:20:30;;;;;;;0.40;0.32;;;16.40;95.30;;;;;;5037504;28;20282;-83
2021/10/04 11:23:10;;;;;;;0.40;0.40;;;16.40;93.80;;;;;;5038052;28;20182;-83
2021/10/04 11:25:48;;;;;;;0.63;0.60;;;16.50;96.30;;;;;;5037203;28;20264;-83
2021/10/04 11:28:20;;;;;;;1.30;0.82;;;16.60;93.70;;;;;;5036683;28;20188;-83
2021/10/04 11:30:59;;;;;;;0.60;0.50;;;16.70;95.40;;;;;;5038012;28;20535;-83
2021/10/04 11:33:28;;;;;;;0.40;0.40;;;16.70;92.40;;;;;;5037263;28;20681;-83
2021/10/04 11:35:56;;;;;;;0.50;0.50;;;16.60;91.50;;;;;;5037063;28;20222;-83
2021/10/04 11:38:23;;;;;;;1.30;1.30;;;16.60;92.00;;;;;;5037282;28;20661;-83
2021/10/04 11:40:50;;;;;;;0.40;0.40;;;16.70;95.00;;;;;;5037236;28;20200;-83
2021/10/04 11:43:16;;;;;;;0.60;0.50;;;16.80;94.30;;;;;;5036581;28;20178;-83
2021/10/04 11:45:42;;;;;;;0.40;0.40;;;16.90;93.10;;;;;;5037520;28;20173;-83
2021/10/04 11:48:08;;;;;;;0.50;0.50;;;16.90;92.00;;;;;;5037193;28;20182;-83
2021/10/04 11:50:44;;;;;;;0.70;0.50;;;17.00;91.20;;;;;;5037212;28;20239;-83
2021/10/04 11:53:13;;;;;;;0.50;0.40;;;17.00;93.00;;;;;;5036324;28;20468;-84
2021/10/04 11:55:40;;;;;;;0.47;0.47;;;17.00;91.80;;;;;;5036974;28;20189;-83
2021/10/04 11:58:16;;;;;;;0.82;0.60;;;17.00;89.50;;;;;;5037018;28;20174;-83
2021/10/04 12:00:48;;;;;;;0.50;0.50;;;17.00;90.80;;;;;;5036268;28;20227;-83
2021/10/04 12:03:31;;;;;;;1.02;0.70;;;16.90;90.90;;;;;;5036801;28;20177;-83
2021/10/04 12:05:59;;;;;;;0.40;0.30;;;16.90;90.20;;;;;;5036615;28;20201;-84
2021/10/04 12:08:34;;;;;;;0.40;0.40;;;16.90;91.80;;;;;;5036136;28;20264;-83
2021/10/04 12:11:01;;;;;;;0.50;0.40;;;16.90;91.60;;;;;;5036157;28;20534;-83
2021/10/04 12:13:34;;;;;;;0.40;0.40;;;16.90;93.80;;;;;;5035430;28;20208;-84
2021/10/04 12:16:06;;;;;;;0.50;0.50;;;16.90;89.60;;;;;;5035595;28;20189;-83
2021/10/04 12:18:33;;;;;;;0.40;0.40;;;16.90;90.40;;;;;;5035729;28;20181;-83
2021/10/04 12:21:23;;;;;;;0.40;0.38;;;17.00;91.40;;;;;;5036294;28;20185;-83
2021/10/04 12:24:21;;;;;;;0.40;0.40;;;16.90;88.70;;;;;;5035902;28;20261;-83
2021/10/04 12:26:58;;;;;;;0.40;0.40;;;17.00;88.30;;;;;;5021422;28;20212;-83
2021/10/04 12:29:41;;;;;;;0.40;0.40;;;17.00;89.60;;;;;;5036585;28;20532;-83
2021/10/04 12:32:25;;;;;;;0.40;0.30;;;17.00;88.80;;;;;;5035668;28;20205;-83
2021/10/04 12:35:13;;;;;;;0.40;0.40;;;17.10;89.60;;;;;;5035714;28;20182;-83
2021/10/04 12:37:55;;;;;;;0.90;0.50;;;17.20;89.50;;;;;;5036183;28;20665;-83
2021/10/04 12:40:23;;;;;;;1.00;0.50;;;17.20;88.90;;;;;;5036044;28;20252;-83
2021/10/04 12:42:51;;;;;;;0.40;0.40;;;17.30;89.50;;;;;;5036241;28;20170;-83
2021/10/04 12:45:17;;;;;;;0.60;0.50;;;17.20;88.00;;;;;;5035882;28;20665;-83
2021/10/04 12:48:06;;;;;;;0.40;0.40;;;17.20;87.60;;;;;;5035808;28;20190;-83
2021/10/04 12:50:36;;;;;;;0.40;0.40;;;17.20;87.10;;;;;;5036884;28;20694;-84
2021/10/04 12:53:22;;;;;;;0.40;0.40;;;17.30;89.80;;;;;;5036457;28;20676;-84
2021/10/04 12:55:56;;;;;;;0.40;0.40;;;17.40;93.20;;;;;;5034500;28;20212;-83